Aviation Digital Data Service (ADDS)

Output produced by METARs form (1715 UTC 24 June 2019)
found at http://www.aviationweather.gov/metar/data/
 
Forecast for: EPKK (KRAKOW/BALICE , PL)
Text: TAF EPKK 241430Z 2415/2515 06010KT CAVOK
Forecast period: 1500 UTC 24 June 2019 to 1500 UTC 25 June 2019
Forecast type: FROM: standard forecast or significant change
Winds: from the ENE (60 degrees) at 12 MPH (10 knots; 5.1 m/s)
Visibility: 6 or more miles 10+ km)
Ceiling: unknown
Clouds: missing
Weather: NSW  (no significant weather)